Decoded Metar for KAQW (NORTH ADAMS in MA, USA) (IATA:AQW) | Meteo·Mobile Aviation Weather
aviador You're here:

KAQW Decoded Metar

NORTH ADAMS in MA, USA
Report Time2018-10-23 10:52:00
UTC Time2018-10-23 11:19:24
Flight Rules vfr VFR
Wind100° at 04 kt
W.Decomp.*RWY 11: 4.0 kt HW 0.3 kt RCW
W.Rank100° ranks 4
Current wind is below 100° avg. (8.2)
Visibility9999 m
Phenomena:N/A
Clouds:Overcast 095 Hf
Expected CloudBase > 800 ft AGL from Temp-Dew spread
Ceiling9,500 ft
Temp04°C (ISA -10)
Dew Point02°C (87% RH)
AAT0.9°C
QNH1018 hPa
Density Alt-591 ft
Elevation653 ft
Report Wrong Elevation
Raw Report
KAQW 231052Z AUTO 10004KT 10SM OVC095 04/02 A3005 RMK AO2 SLP183
T00390017=

Extra information for KAQW:More info

Metar Taf Metar & Taf Last 4 Metars F.Rules Stats Wind Profile Meteogram Temp Stats Airport Information Weather charts Add Link Nearby VenuesMetar ALERT Operation Metar Decoded Social comments

AIRNAV info for KAQW